sensor_id;sensor_type;location;lat;lon;timestamp;temperature;humidity
1592;DHT22;789;51.612;7.510;2023-03-12T00:00:10;4.00;1.00
1592;DHT22;789;51.612;7.510;2023-03-12T00:02:37;4.00;1.00
1592;DHT22;789;51.612;7.510;2023-03-12T00:05:05;4.00;1.00
1592;DHT22;789;51.612;7.510;2023-03-12T00:07:32;4.00;1.00
1592;DHT22;789;51.612;7.510;2023-03-12T00:10:02;3.90;1.00
1592;DHT22;789;51.612;7.510;2023-03-12T00:12:29;4.00;1.00
1592;DHT22;789;51.612;7.510;2023-03-12T00:14:55;4.00;1.00
1592;DHT22;789;51.612;7.510;2023-03-12T00:17:22;4.10;1.00
1592;DHT22;789;51.612;7.510;2023-03-12T00:19:50;4.10;1.00
1592;DHT22;789;51.612;7.510;2023-03-12T00:22:17;4.00;1.00
1592;DHT22;789;51.612;7.510;2023-03-12T00:24:49;3.90;1.00
1592;DHT22;789;51.612;7.510;2023-03-12T00:27:18;3.80;1.00
1592;DHT22;789;51.612;7.510;2023-03-12T00:29:44;3.90;1.00
1592;DHT22;789;51.612;7.510;2023-03-12T00:32:11;3.90;1.00
1592;DHT22;789;51.612;7.510;2023-03-12T00:34:38;3.90;1.00
1592;DHT22;789;51.612;7.510;2023-03-12T00:37:05;4.00;1.00
1592;DHT22;789;51.612;7.510;2023-03-12T00:39:32;4.00;1.00
1592;DHT22;789;51.612;7.510;2023-03-12T00:41:59;4.00;1.00
1592;DHT22;789;51.612;7.510;2023-03-12T00:44:28;4.10;1.00
1592;DHT22;789;51.612;7.510;2023-03-12T00:46:55;4.10;1.00
1592;DHT22;789;51.612;7.510;2023-03-12T00:49:21;4.10;1.00
1592;DHT22;789;51.612;7.510;2023-03-12T00:51:54;4.00;1.00
1592;DHT22;789;51.612;7.510;2023-03-12T00:54:21;4.00;1.00
1592;DHT22;789;51.612;7.510;2023-03-12T00:56:48;4.00;1.00
1592;DHT22;789;51.612;7.510;2023-03-12T00:59:15;4.10;1.00
1592;DHT22;789;51.612;7.510;2023-03-12T01:01:43;4.10;1.00
1592;DHT22;789;51.612;7.510;2023-03-12T01:04:10;4.10;1.00
1592;DHT22;789;51.612;7.510;2023-03-12T01:06:37;4.10;1.00
1592;DHT22;789;51.612;7.510;2023-03-12T01:09:05;4.00;1.00
1592;DHT22;789;51.612;7.510;2023-03-12T01:11:34;4.10;1.00
1592;DHT22;789;51.612;7.510;2023-03-12T01:14:02;4.10;1.00
1592;DHT22;789;51.612;7.510;2023-03-12T01:16:29;4.10;1.00
1592;DHT22;789;51.612;7.510;2023-03-12T01:18:59;4.10;1.00
1592;DHT22;789;51.612;7.510;2023-03-12T01:21:28;4.20;1.00
1592;DHT22;789;51.612;7.510;2023-03-12T01:23:55;4.20;1.00
1592;DHT22;789;51.612;7.510;2023-03-12T01:26:23;4.20;1.00
1592;DHT22;789;51.612;7.510;2023-03-12T01:28:50;4.30;1.00
1592;DHT22;789;51.612;7.510;2023-03-12T01:31:17;4.30;1.00
1592;DHT22;789;51.612;7.510;2023-03-12T01:33:47;4.20;1.00
1592;DHT22;789;51.612;7.510;2023-03-12T01:36:17;4.40;1.00
1592;DHT22;789;51.612;7.510;2023-03-12T01:38:44;4.40;1.00
1592;DHT22;789;51.612;7.510;2023-03-12T01:41:12;4.40;1.00
1592;DHT22;789;51.612;7.510;2023-03-12T01:43:39;4.40;1.00
1592;DHT22;789;51.612;7.510;2023-03-12T01:46:25;4.40;1.00
1592;DHT22;789;51.612;7.510;2023-03-12T01:48:55;4.40;1.00
1592;DHT22;789;51.612;7.510;2023-03-12T01:51:27;4.40;1.00
1592;DHT22;789;51.612;7.510;2023-03-12T01:53:59;4.40;1.00
1592;DHT22;789;51.612;7.510;2023-03-12T01:56:28;4.40;1.00
1592;DHT22;789;51.612;7.510;2023-03-12T01:58:59;4.40;1.00
1592;DHT22;789;51.612;7.510;2023-03-12T02:01:26;4.30;1.00
1592;DHT22;789;51.612;7.510;2023-03-12T02:03:55;4.40;1.00
1592;DHT22;789;51.612;7.510;2023-03-12T02:06:32;4.40;1.00
1592;DHT22;789;51.612;7.510;2023-03-12T02:09:01;4.40;1.00
1592;DHT22;789;51.612;7.510;2023-03-12T02:11:29;4.30;1.00
1592;DHT22;789;51.612;7.510;2023-03-12T02:13:56;4.30;1.00
1592;DHT22;789;51.612;7.510;2023-03-12T02:16:23;4.30;1.00
1592;DHT22;789;51.612;7.510;2023-03-12T02:18:52;4.30;1.00
1592;DHT22;789;51.612;7.510;2023-03-12T02:21:22;4.30;1.00
1592;DHT22;789;51.612;7.510;2023-03-12T02:23:57;4.40;1.00
1592;DHT22;789;51.612;7.510;2023-03-12T02:26:28;4.40;1.00
1592;DHT22;789;51.612;7.510;2023-03-12T02:28:57;4.40;1.00
1592;DHT22;789;51.612;7.510;2023-03-12T02:31:27;4.40;1.00
1592;DHT22;789;51.612;7.510;2023-03-12T02:33:55;4.40;1.00
1592;DHT22;789;51.612;7.510;2023-03-12T02:36:22;4.50;1.00
1592;DHT22;789;51.612;7.510;2023-03-12T02:38:50;4.50;1.00
1592;DHT22;789;51.612;7.510;2023-03-12T02:41:21;4.50;1.00
1592;DHT22;789;51.612;7.510;2023-03-12T02:43:57;4.50;1.00
1592;DHT22;789;51.612;7.510;2023-03-12T02:46:26;4.60;1.00
1592;DHT22;789;51.612;7.510;2023-03-12T02:48:54;4.60;1.00
1592;DHT22;789;51.612;7.510;2023-03-12T02:51:21;4.60;1.00
1592;DHT22;789;51.612;7.510;2023-03-12T02:53:48;4.50;1.00
1592;DHT22;789;51.612;7.510;2023-03-12T02:56:19;4.50;1.00
1592;DHT22;789;51.612;7.510;2023-03-12T02:58:46;4.50;1.00
1592;DHT22;789;51.612;7.510;2023-03-12T03:01:15;4.50;1.00
1592;DHT22;789;51.612;7.510;2023-03-12T03:03:42;4.40;1.00
1592;DHT22;789;51.612;7.510;2023-03-12T03:06:09;4.40;1.00
1592;DHT22;789;51.612;7.510;2023-03-12T03:08:36;4.40;1.00
1592;DHT22;789;51.612;7.510;2023-03-12T03:11:03;4.40;1.00
1592;DHT22;789;51.612;7.510;2023-03-12T03:13:31;4.30;1.00
1592;DHT22;789;51.612;7.510;2023-03-12T03:15:58;4.30;1.00
1592;DHT22;789;51.612;7.510;2023-03-12T03:18:28;4.30;1.00
1592;DHT22;789;51.612;7.510;2023-03-12T03:20:55;4.20;1.00
1592;DHT22;789;51.612;7.510;2023-03-12T03:23:22;4.20;1.00
1592;DHT22;789;51.612;7.510;2023-03-12T03:25:50;4.20;1.00
1592;DHT22;789;51.612;7.510;2023-03-12T03:28:17;4.10;1.00
1592;DHT22;789;51.612;7.510;2023-03-12T03:30:44;4.00;1.00
1592;DHT22;789;51.612;7.510;2023-03-12T03:33:11;4.00;1.00
1592;DHT22;789;51.612;7.510;2023-03-12T03:35:39;4.00;1.00
1592;DHT22;789;51.612;7.510;2023-03-12T03:38:06;3.90;1.00
1592;DHT22;789;51.612;7.510;2023-03-12T03:40:32;3.90;1.00
1592;DHT22;789;51.612;7.510;2023-03-12T03:42:59;3.90;1.00
1592;DHT22;789;51.612;7.510;2023-03-12T03:45:26;3.80;1.00
1592;DHT22;789;51.612;7.510;2023-03-12T03:47:53;3.80;1.00
1592;DHT22;789;51.612;7.510;2023-03-12T03:50:20;3.80;1.00
1592;DHT22;789;51.612;7.510;2023-03-12T03:52:48;3.80;1.00
1592;DHT22;789;51.612;7.510;2023-03-12T03:55:15;3.80;1.00
1592;DHT22;789;51.612;7.510;2023-03-12T03:57:42;3.80;1.00
1592;DHT22;789;51.612;7.510;2023-03-12T04:00:10;3.80;1.00
1592;DHT22;789;51.612;7.510;2023-03-12T04:02:37;3.90;1.00
1592;DHT22;789;51.612;7.510;2023-03-12T04:05:04;3.90;1.00
1592;DHT22;789;51.612;7.510;2023-03-12T04:07:31;3.90;1.00
1592;DHT22;789;51.612;7.510;2023-03-12T04:10:00;3.90;1.00
1592;DHT22;789;51.612;7.510;2023-03-12T04:12:27;4.00;1.00
1592;DHT22;789;51.612;7.510;2023-03-12T04:14:54;4.00;1.00
1592;DHT22;789;51.612;7.510;2023-03-12T04:17:21;4.00;1.00
1592;DHT22;789;51.612;7.510;2023-03-12T04:19:47;4.00;1.00
1592;DHT22;789;51.612;7.510;2023-03-12T04:22:15;4.00;1.00
1592;DHT22;789;51.612;7.510;2023-03-12T04:24:41;4.00;1.00
1592;DHT22;789;51.612;7.510;2023-03-12T04:27:09;4.10;1.00
1592;DHT22;789;51.612;7.510;2023-03-12T04:29:36;4.10;1.00
1592;DHT22;789;51.612;7.510;2023-03-12T04:32:05;4.10;1.00
1592;DHT22;789;51.612;7.510;2023-03-12T04:34:32;4.10;1.00
1592;DHT22;789;51.612;7.510;2023-03-12T04:36:59;4.10;1.00
1592;DHT22;789;51.612;7.510;2023-03-12T04:39:26;4.10;1.00
1592;DHT22;789;51.612;7.510;2023-03-12T04:41:53;4.00;1.00
1592;DHT22;789;51.612;7.510;2023-03-12T04:44:21;4.00;1.00
1592;DHT22;789;51.612;7.510;2023-03-12T04:46:48;4.00;1.00
1592;DHT22;789;51.612;7.510;2023-03-12T04:49:15;4.10;1.00
1592;DHT22;789;51.612;7.510;2023-03-12T04:51:42;4.10;1.00
1592;DHT22;789;51.612;7.510;2023-03-12T04:54:08;4.10;1.00
1592;DHT22;789;51.612;7.510;2023-03-12T04:56:35;4.10;1.00
1592;DHT22;789;51.612;7.510;2023-03-12T04:59:02;4.10;1.00
1592;DHT22;789;51.612;7.510;2023-03-12T05:01:32;4.10;1.00
1592;DHT22;789;51.612;7.510;2023-03-12T05:03:59;4.20;1.00
1592;DHT22;789;51.612;7.510;2023-03-12T05:06:26;4.20;1.00
1592;DHT22;789;51.612;7.510;2023-03-12T05:08:53;4.10;1.00
1592;DHT22;789;51.612;7.510;2023-03-12T05:11:20;4.10;1.00
1592;DHT22;789;51.612;7.510;2023-03-12T05:13:48;4.00;1.00
1592;DHT22;789;51.612;7.510;2023-03-12T05:16:15;3.90;1.00
1592;DHT22;789;51.612;7.510;2023-03-12T05:18:44;3.80;1.00
1592;DHT22;789;51.612;7.510;2023-03-12T05:21:13;3.80;1.00
1592;DHT22;789;51.612;7.510;2023-03-12T05:23:40;3.80;1.00
1592;DHT22;789;51.612;7.510;2023-03-12T05:26:15;3.80;1.00
1592;DHT22;789;51.612;7.510;2023-03-12T05:28:42;3.70;1.00
1592;DHT22;789;51.612;7.510;2023-03-12T05:31:10;3.70;1.00
1592;DHT22;789;51.612;7.510;2023-03-12T05:33:38;3.70;1.00
1592;DHT22;789;51.612;7.510;2023-03-12T05:36:07;3.70;1.00
1592;DHT22;789;51.612;7.510;2023-03-12T05:38:34;3.80;1.00
1592;DHT22;789;51.612;7.510;2023-03-12T05:41:01;3.80;1.00
1592;DHT22;789;51.612;7.510;2023-03-12T05:43:28;3.80;1.00
1592;DHT22;789;51.612;7.510;2023-03-12T05:45:58;3.80;1.00
1592;DHT22;789;51.612;7.510;2023-03-12T05:48:26;3.80;1.00
1592;DHT22;789;51.612;7.510;2023-03-12T05:50:52;3.80;1.00
1592;DHT22;789;51.612;7.510;2023-03-12T05:53:22;3.80;1.00
1592;DHT22;789;51.612;7.510;2023-03-12T05:55:48;3.80;1.00
1592;DHT22;789;51.612;7.510;2023-03-12T05:58:15;3.80;1.00
1592;DHT22;789;51.612;7.510;2023-03-12T06:00:42;3.80;1.00
1592;DHT22;789;51.612;7.510;2023-03-12T06:03:10;3.80;1.00
1592;DHT22;789;51.612;7.510;2023-03-12T06:05:37;3.80;1.00
1592;DHT22;789;51.612;7.510;2023-03-12T06:08:05;3.90;1.00
1592;DHT22;789;51.612;7.510;2023-03-12T06:10:36;3.90;1.00
1592;DHT22;789;51.612;7.510;2023-03-12T06:13:03;3.90;1.00
1592;DHT22;789;51.612;7.510;2023-03-12T06:15:30;3.90;1.00
1592;DHT22;789;51.612;7.510;2023-03-12T06:17:56;3.90;1.00
1592;DHT22;789;51.612;7.510;2023-03-12T06:20:23;4.00;1.00
1592;DHT22;789;51.612;7.510;2023-03-12T06:22:50;4.00;1.00
1592;DHT22;789;51.612;7.510;2023-03-12T06:25:17;4.10;1.00
1592;DHT22;789;51.612;7.510;2023-03-12T06:27:45;4.10;1.00
1592;DHT22;789;51.612;7.510;2023-03-12T06:30:14;4.10;1.00
1592;DHT22;789;51.612;7.510;2023-03-12T06:32:40;4.10;1.00
1592;DHT22;789;51.612;7.510;2023-03-12T06:35:08;4.10;1.00
1592;DHT22;789;51.612;7.510;2023-03-12T06:37:35;4.10;1.00
1592;DHT22;789;51.612;7.510;2023-03-12T06:40:02;4.10;1.00
1592;DHT22;789;51.612;7.510;2023-03-12T06:42:34;4.10;1.00
1592;DHT22;789;51.612;7.510;2023-03-12T06:45:02;4.20;1.00
1592;DHT22;789;51.612;7.510;2023-03-12T06:47:30;4.20;1.00
1592;DHT22;789;51.612;7.510;2023-03-12T06:49:57;4.20;1.00
1592;DHT22;789;51.612;7.510;2023-03-12T06:52:23;4.20;1.00
1592;DHT22;789;51.612;7.510;2023-03-12T06:54:51;4.30;1.00
1592;DHT22;789;51.612;7.510;2023-03-12T06:57:18;4.30;1.00
1592;DHT22;789;51.612;7.510;2023-03-12T06:59:44;4.30;1.00
1592;DHT22;789;51.612;7.510;2023-03-12T07:02:13;4.30;1.00
1592;DHT22;789;51.612;7.510;2023-03-12T07:04:39;4.30;1.00
1592;DHT22;789;51.612;7.510;2023-03-12T07:07:08;4.30;1.00
1592;DHT22;789;51.612;7.510;2023-03-12T07:09:35;4.30;1.00
1592;DHT22;789;51.612;7.510;2023-03-12T07:12:02;4.40;1.00
1592;DHT22;789;51.612;7.510;2023-03-12T07:14:29;4.40;1.00
1592;DHT22;789;51.612;7.510;2023-03-12T07:16:56;4.50;1.00
1592;DHT22;789;51.612;7.510;2023-03-12T07:19:24;4.50;1.00
1592;DHT22;789;51.612;7.510;2023-03-12T07:21:51;4.50;1.00
1592;DHT22;789;51.612;7.510;2023-03-12T07:24:18;4.50;1.00
1592;DHT22;789;51.612;7.510;2023-03-12T07:26:45;4.40;1.00
1592;DHT22;789;51.612;7.510;2023-03-12T07:29:12;4.30;1.00
1592;DHT22;789;51.612;7.510;2023-03-12T07:31:38;4.20;1.00
1592;DHT22;789;51.612;7.510;2023-03-12T07:34:05;4.20;1.00
1592;DHT22;789;51.612;7.510;2023-03-12T07:36:33;4.20;1.00
1592;DHT22;789;51.612;7.510;2023-03-12T07:39:00;4.20;1.00
1592;DHT22;789;51.612;7.510;2023-03-12T07:41:27;4.20;1.00
1592;DHT22;789;51.612;7.510;2023-03-12T07:43:54;4.30;1.00
1592;DHT22;789;51.612;7.510;2023-03-12T07:46:20;4.20;1.00
1592;DHT22;789;51.612;7.510;2023-03-12T07:48:47;4.00;1.00
1592;DHT22;789;51.612;7.510;2023-03-12T07:51:14;3.90;1.00
1592;DHT22;789;51.612;7.510;2023-03-12T07:53:42;3.80;1.00
1592;DHT22;789;51.612;7.510;2023-03-12T07:56:09;3.70;1.00
1592;DHT22;789;51.612;7.510;2023-03-12T07:58:35;3.60;1.00
1592;DHT22;789;51.612;7.510;2023-03-12T08:01:04;3.60;1.00
1592;DHT22;789;51.612;7.510;2023-03-12T08:03:31;3.70;1.00
1592;DHT22;789;51.612;7.510;2023-03-12T08:05:59;3.70;1.00
1592;DHT22;789;51.612;7.510;2023-03-12T08:08:26;3.70;1.00
1592;DHT22;789;51.612;7.510;2023-03-12T08:10:55;3.80;1.00
1592;DHT22;789;51.612;7.510;2023-03-12T08:13:22;3.90;1.00
1592;DHT22;789;51.612;7.510;2023-03-12T08:15:49;4.00;1.00
1592;DHT22;789;51.612;7.510;2023-03-12T08:18:17;4.10;1.00
1592;DHT22;789;51.612;7.510;2023-03-12T08:20:44;4.20;1.00
1592;DHT22;789;51.612;7.510;2023-03-12T08:23:11;4.30;1.00
1592;DHT22;789;51.612;7.510;2023-03-12T08:25:38;4.40;1.00
1592;DHT22;789;51.612;7.510;2023-03-12T08:28:06;4.40;1.00
1592;DHT22;789;51.612;7.510;2023-03-12T08:30:33;4.40;1.00
1592;DHT22;789;51.612;7.510;2023-03-12T08:33:00;4.60;1.00
1592;DHT22;789;51.612;7.510;2023-03-12T08:35:27;4.60;1.00
1592;DHT22;789;51.612;7.510;2023-03-12T08:37:53;4.60;1.00
1592;DHT22;789;51.612;7.510;2023-03-12T08:40:21;4.60;1.00
1592;DHT22;789;51.612;7.510;2023-03-12T08:42:48;4.60;1.00
1592;DHT22;789;51.612;7.510;2023-03-12T08:45:16;4.60;1.00
1592;DHT22;789;51.612;7.510;2023-03-12T08:47:43;4.60;1.00
1592;DHT22;789;51.612;7.510;2023-03-12T08:50:12;4.60;1.00
1592;DHT22;789;51.612;7.510;2023-03-12T08:52:39;4.70;1.00
1592;DHT22;789;51.612;7.510;2023-03-12T08:55:07;4.70;1.00
1592;DHT22;789;51.612;7.510;2023-03-12T08:57:34;4.90;1.00
1592;DHT22;789;51.612;7.510;2023-03-12T09:00:01;4.90;1.00
1592;DHT22;789;51.612;7.510;2023-03-12T09:02:31;4.90;1.00
1592;DHT22;789;51.612;7.510;2023-03-12T09:04:57;5.00;1.00
1592;DHT22;789;51.612;7.510;2023-03-12T09:07:24;5.10;1.00
1592;DHT22;789;51.612;7.510;2023-03-12T09:09:53;5.30;1.00
1592;DHT22;789;51.612;7.510;2023-03-12T09:12:20;5.30;1.00
1592;DHT22;789;51.612;7.510;2023-03-12T09:14:47;5.40;1.00
1592;DHT22;789;51.612;7.510;2023-03-12T09:17:13;5.50;1.00
1592;DHT22;789;51.612;7.510;2023-03-12T09:19:41;5.50;1.00
1592;DHT22;789;51.612;7.510;2023-03-12T09:22:08;5.60;1.00
1592;DHT22;789;51.612;7.510;2023-03-12T09:24:35;5.60;1.00
1592;DHT22;789;51.612;7.510;2023-03-12T09:27:03;5.60;1.00
1592;DHT22;789;51.612;7.510;2023-03-12T09:29:29;5.70;1.00
1592;DHT22;789;51.612;7.510;2023-03-12T09:31:57;5.80;1.00
1592;DHT22;789;51.612;7.510;2023-03-12T09:34:24;5.90;1.00
1592;DHT22;789;51.612;7.510;2023-03-12T09:36:52;6.00;1.00
1592;DHT22;789;51.612;7.510;2023-03-12T09:39:20;5.90;1.00
1592;DHT22;789;51.612;7.510;2023-03-12T09:41:47;5.80;1.00
1592;DHT22;789;51.612;7.510;2023-03-12T09:44:19;5.80;1.00
1592;DHT22;789;51.612;7.510;2023-03-12T09:46:50;5.70;1.00
1592;DHT22;789;51.612;7.510;2023-03-12T09:49:24;5.80;1.00
1592;DHT22;789;51.612;7.510;2023-03-12T09:51:56;5.90;1.00
1592;DHT22;789;51.612;7.510;2023-03-12T09:54:28;6.00;1.00
1592;DHT22;789;51.612;7.510;2023-03-12T09:57:02;6.00;1.00
1592;DHT22;789;51.612;7.510;2023-03-12T09:59:30;6.00;1.00
1592;DHT22;789;51.612;7.510;2023-03-12T10:01:59;6.10;1.00
1592;DHT22;789;51.612;7.510;2023-03-12T10:04:35;6.10;1.00
1592;DHT22;789;51.612;7.510;2023-03-12T10:07:07;6.10;1.00
1592;DHT22;789;51.612;7.510;2023-03-12T10:09:58;6.10;1.00
1592;DHT22;789;51.612;7.510;2023-03-12T10:12:37;6.10;1.00
1592;DHT22;789;51.612;7.510;2023-03-12T10:15:21;6.20;1.00
1592;DHT22;789;51.612;7.510;2023-03-12T10:17:59;6.20;1.00
1592;DHT22;789;51.612;7.510;2023-03-12T10:20:52;6.30;1.00
1592;DHT22;789;51.612;7.510;2023-03-12T10:23:28;6.30;1.00
1592;DHT22;789;51.612;7.510;2023-03-12T10:26:01;6.30;1.00
1592;DHT22;789;51.612;7.510;2023-03-12T10:28:35;6.30;1.00
1592;DHT22;789;51.612;7.510;2023-03-12T10:31:09;6.40;1.00
1592;DHT22;789;51.612;7.510;2023-03-12T10:33:43;6.30;1.00
1592;DHT22;789;51.612;7.510;2023-03-12T10:36:15;6.40;1.00
1592;DHT22;789;51.612;7.510;2023-03-12T10:38:46;6.30;1.00
1592;DHT22;789;51.612;7.510;2023-03-12T10:41:21;6.30;1.00
1592;DHT22;789;51.612;7.510;2023-03-12T10:43:48;6.30;1.00
1592;DHT22;789;51.612;7.510;2023-03-12T10:46:40;6.40;1.00
1592;DHT22;789;51.612;7.510;2023-03-12T10:49:23;6.60;1.00
1592;DHT22;789;51.612;7.510;2023-03-12T10:51:53;6.80;1.00
1592;DHT22;789;51.612;7.510;2023-03-12T10:54:29;6.90;1.00
1592;DHT22;789;51.612;7.510;2023-03-12T10:56:57;7.00;1.00
1592;DHT22;789;51.612;7.510;2023-03-12T10:59:29;7.10;1.00
1592;DHT22;789;51.612;7.510;2023-03-12T11:01:57;7.00;1.00
1592;DHT22;789;51.612;7.510;2023-03-12T11:04:26;7.00;1.00
1592;DHT22;789;51.612;7.510;2023-03-12T11:07:06;7.10;1.00
1592;DHT22;789;51.612;7.510;2023-03-12T11:09:35;7.20;1.00
1592;DHT22;789;51.612;7.510;2023-03-12T11:12:01;7.20;1.00
1592;DHT22;789;51.612;7.510;2023-03-12T11:14:47;7.20;1.00
1592;DHT22;789;51.612;7.510;2023-03-12T11:17:19;7.20;1.00
1592;DHT22;789;51.612;7.510;2023-03-12T11:19:47;7.30;1.00
1592;DHT22;789;51.612;7.510;2023-03-12T11:22:26;7.30;1.00
1592;DHT22;789;51.612;7.510;2023-03-12T11:24:56;7.40;1.00
1592;DHT22;789;51.612;7.510;2023-03-12T11:27:31;7.50;1.00
1592;DHT22;789;51.612;7.510;2023-03-12T11:30:05;7.70;1.00
1592;DHT22;789;51.612;7.510;2023-03-12T11:32:35;7.70;1.00
1592;DHT22;789;51.612;7.510;2023-03-12T11:35:07;7.70;1.00
1592;DHT22;789;51.612;7.510;2023-03-12T11:37:41;7.80;1.00
1592;DHT22;789;51.612;7.510;2023-03-12T11:40:17;7.80;1.00
1592;DHT22;789;51.612;7.510;2023-03-12T11:42:55;7.90;1.00
1592;DHT22;789;51.612;7.510;2023-03-12T11:45:27;8.00;1.00
1592;DHT22;789;51.612;7.510;2023-03-12T11:48:03;8.00;1.00
1592;DHT22;789;51.612;7.510;2023-03-12T11:50:40;8.10;1.00
1592;DHT22;789;51.612;7.510;2023-03-12T11:53:26;8.10;1.00
1592;DHT22;789;51.612;7.510;2023-03-12T11:56:08;8.20;1.00
1592;DHT22;789;51.612;7.510;2023-03-12T11:58:47;8.20;1.00
1592;DHT22;789;51.612;7.510;2023-03-12T12:01:23;8.20;1.00
1592;DHT22;789;51.612;7.510;2023-03-12T12:04:03;8.20;1.00
1592;DHT22;789;51.612;7.510;2023-03-12T12:06:39;8.20;1.00
1592;DHT22;789;51.612;7.510;2023-03-12T12:09:17;8.30;1.00
1592;DHT22;789;51.612;7.510;2023-03-12T12:11:57;8.30;1.00
1592;DHT22;789;51.612;7.510;2023-03-12T12:14:43;8.40;1.00
1592;DHT22;789;51.612;7.510;2023-03-12T12:17:24;8.50;1.00
1592;DHT22;789;51.612;7.510;2023-03-12T12:20:00;8.60;1.00
1592;DHT22;789;51.612;7.510;2023-03-12T12:22:41;8.70;1.00
1592;DHT22;789;51.612;7.510;2023-03-12T12:25:27;8.80;1.00
1592;DHT22;789;51.612;7.510;2023-03-12T12:28:14;8.90;1.00
1592;DHT22;789;51.612;7.510;2023-03-12T12:30:54;9.00;1.00
1592;DHT22;789;51.612;7.510;2023-03-12T12:33:36;9.10;1.00
1592;DHT22;789;51.612;7.510;2023-03-12T12:36:09;9.10;1.00
1592;DHT22;789;51.612;7.510;2023-03-12T12:38:39;9.10;1.00
1592;DHT22;789;51.612;7.510;2023-03-12T12:41:10;9.20;1.00
1592;DHT22;789;51.612;7.510;2023-03-12T12:43:43;9.20;1.00
1592;DHT22;789;51.612;7.510;2023-03-12T12:46:16;9.20;1.00
1592;DHT22;789;51.612;7.510;2023-03-12T12:48:45;9.30;1.00
1592;DHT22;789;51.612;7.510;2023-03-12T12:51:18;9.30;1.00
1592;DHT22;789;51.612;7.510;2023-03-12T12:53:52;9.40;1.00
1592;DHT22;789;51.612;7.510;2023-03-12T12:56:26;9.50;1.00
1592;DHT22;789;51.612;7.510;2023-03-12T12:59:25;9.50;1.00
1592;DHT22;789;51.612;7.510;2023-03-12T13:01:55;9.50;1.00
1592;DHT22;789;51.612;7.510;2023-03-12T13:04:28;9.70;1.00
1592;DHT22;789;51.612;7.510;2023-03-12T13:06:59;9.70;1.00
1592;DHT22;789;51.612;7.510;2023-03-12T13:09:36;9.70;1.00
1592;DHT22;789;51.612;7.510;2023-03-12T13:12:12;9.70;1.00
1592;DHT22;789;51.612;7.510;2023-03-12T13:14:42;9.90;1.00
1592;DHT22;789;51.612;7.510;2023-03-12T13:17:58;10.00;1.00
1592;DHT22;789;51.612;7.510;2023-03-12T13:20:30;10.00;1.00
1592;DHT22;789;51.612;7.510;2023-03-12T13:23:20;10.10;1.00
1592;DHT22;789;51.612;7.510;2023-03-12T13:25:59;10.20;1.00
1592;DHT22;789;51.612;7.510;2023-03-12T13:28:33;10.20;1.00
1592;DHT22;789;51.612;7.510;2023-03-12T13:33:46;10.40;1.00
1592;DHT22;789;51.612;7.510;2023-03-12T13:36:22;10.40;1.00
1592;DHT22;789;51.612;7.510;2023-03-12T13:38:56;10.50;1.00
1592;DHT22;789;51.612;7.510;2023-03-12T13:41:32;10.40;1.00
1592;DHT22;789;51.612;7.510;2023-03-12T13:44:02;10.40;1.00
1592;DHT22;789;51.612;7.510;2023-03-12T13:46:56;10.40;1.00
1592;DHT22;789;51.612;7.510;2023-03-12T13:49:24;10.60;1.00
1592;DHT22;789;51.612;7.510;2023-03-12T13:51:58;10.70;1.00
1592;DHT22;789;51.612;7.510;2023-03-12T13:54:30;10.90;1.00
1592;DHT22;789;51.612;7.510;2023-03-12T13:57:01;11.10;1.00
1592;DHT22;789;51.612;7.510;2023-03-12T13:59:29;11.20;1.00
1592;DHT22;789;51.612;7.510;2023-03-12T14:02:02;11.30;1.00
1592;DHT22;789;51.612;7.510;2023-03-12T14:04:33;11.40;1.00
1592;DHT22;789;51.612;7.510;2023-03-12T14:07:22;11.50;1.00
1592;DHT22;789;51.612;7.510;2023-03-12T14:09:59;11.50;1.00
1592;DHT22;789;51.612;7.510;2023-03-12T14:12:32;11.60;1.00
1592;DHT22;789;51.612;7.510;2023-03-12T14:15:08;11.50;1.00
1592;DHT22;789;51.612;7.510;2023-03-12T14:17:39;11.50;1.00
1592;DHT22;789;51.612;7.510;2023-03-12T14:20:13;11.60;1.00
1592;DHT22;789;51.612;7.510;2023-03-12T14:22:44;11.60;1.00
1592;DHT22;789;51.612;7.510;2023-03-12T14:25:16;11.70;1.00
1592;DHT22;789;51.612;7.510;2023-03-12T14:27:48;11.70;1.00
1592;DHT22;789;51.612;7.510;2023-03-12T14:30:20;11.80;1.00
1592;DHT22;789;51.612;7.510;2023-03-12T14:32:52;12.00;1.00
1592;DHT22;789;51.612;7.510;2023-03-12T14:35:22;12.10;1.00
1592;DHT22;789;51.612;7.510;2023-03-12T14:37:55;12.20;1.00
1592;DHT22;789;51.612;7.510;2023-03-12T14:40:25;12.10;1.00
1592;DHT22;789;51.612;7.510;2023-03-12T14:42:58;12.10;1.00
1592;DHT22;789;51.612;7.510;2023-03-12T14:45:26;12.00;1.00
1592;DHT22;789;51.612;7.510;2023-03-12T14:47:56;12.00;1.00
1592;DHT22;789;51.612;7.510;2023-03-12T14:50:25;12.00;1.00
1592;DHT22;789;51.612;7.510;2023-03-12T14:52:53;12.00;1.00
1592;DHT22;789;51.612;7.510;2023-03-12T14:55:22;12.00;1.00
1592;DHT22;789;51.612;7.510;2023-03-12T14:58:02;11.90;1.00
1592;DHT22;789;51.612;7.510;2023-03-12T15:00:29;11.90;1.00
1592;DHT22;789;51.612;7.510;2023-03-12T15:02:59;11.90;1.00
1592;DHT22;789;51.612;7.510;2023-03-12T15:05:28;11.90;1.00
1592;DHT22;789;51.612;7.510;2023-03-12T15:07:59;11.90;1.00
1592;DHT22;789;51.612;7.510;2023-03-12T15:10:28;11.80;1.00
1592;DHT22;789;51.612;7.510;2023-03-12T15:12:57;11.80;1.00
1592;DHT22;789;51.612;7.510;2023-03-12T15:15:30;11.80;1.00
1592;DHT22;789;51.612;7.510;2023-03-12T15:18:03;11.90;1.00
1592;DHT22;789;51.612;7.510;2023-03-12T15:20:30;11.80;1.00
1592;DHT22;789;51.612;7.510;2023-03-12T15:22:58;11.80;1.00
1592;DHT22;789;51.612;7.510;2023-03-12T15:25:28;11.80;1.00
1592;DHT22;789;51.612;7.510;2023-03-12T15:28:04;11.80;1.00
1592;DHT22;789;51.612;7.510;2023-03-12T15:30:32;11.80;1.00
1592;DHT22;789;51.612;7.510;2023-03-12T15:33:06;11.80;1.00
1592;DHT22;789;51.612;7.510;2023-03-12T15:35:33;11.70;1.00
1592;DHT22;789;51.612;7.510;2023-03-12T15:38:01;11.70;1.00
1592;DHT22;789;51.612;7.510;2023-03-12T15:40:29;11.70;1.00
1592;DHT22;789;51.612;7.510;2023-03-12T15:42:57;11.70;1.00
1592;DHT22;789;51.612;7.510;2023-03-12T15:45:33;11.70;1.00
1592;DHT22;789;51.612;7.510;2023-03-12T15:48:01;11.70;1.00
1592;DHT22;789;51.612;7.510;2023-03-12T15:50:33;11.70;1.00
1592;DHT22;789;51.612;7.510;2023-03-12T15:53:03;11.60;1.00
1592;DHT22;789;51.612;7.510;2023-03-12T15:55:31;11.60;1.00
1592;DHT22;789;51.612;7.510;2023-03-12T15:57:59;11.60;1.00
1592;DHT22;789;51.612;7.510;2023-03-12T16:00:27;11.60;1.00
1592;DHT22;789;51.612;7.510;2023-03-12T16:02:56;11.60;1.00
1592;DHT22;789;51.612;7.510;2023-03-12T16:05:26;11.60;1.00
1592;DHT22;789;51.612;7.510;2023-03-12T16:07:55;11.60;1.00
1592;DHT22;789;51.612;7.510;2023-03-12T16:10:24;11.60;1.00
1592;DHT22;789;51.612;7.510;2023-03-12T16:12:57;11.60;1.00
1592;DHT22;789;51.612;7.510;2023-03-12T16:15:28;11.60;1.00
1592;DHT22;789;51.612;7.510;2023-03-12T16:17:56;11.60;1.00
1592;DHT22;789;51.612;7.510;2023-03-12T16:20:23;11.50;1.00
1592;DHT22;789;51.612;7.510;2023-03-12T16:22:50;11.50;1.00
1592;DHT22;789;51.612;7.510;2023-03-12T16:25:18;11.50;1.00
1592;DHT22;789;51.612;7.510;2023-03-12T16:27:47;11.50;1.00
1592;DHT22;789;51.612;7.510;2023-03-12T16:30:17;11.50;1.00
1592;DHT22;789;51.612;7.510;2023-03-12T16:32:45;11.50;1.00
1592;DHT22;789;51.612;7.510;2023-03-12T16:35:13;11.50;1.00
1592;DHT22;789;51.612;7.510;2023-03-12T16:37:40;11.50;1.00
1592;DHT22;789;51.612;7.510;2023-03-12T16:40:09;11.50;1.00
1592;DHT22;789;51.612;7.510;2023-03-12T16:42:39;11.50;1.00
1592;DHT22;789;51.612;7.510;2023-03-12T16:45:09;11.50;1.00
1592;DHT22;789;51.612;7.510;2023-03-12T16:47:37;11.60;1.00
1592;DHT22;789;51.612;7.510;2023-03-12T16:50:12;11.50;1.00
1592;DHT22;789;51.612;7.510;2023-03-12T16:52:39;11.50;1.00
1592;DHT22;789;51.612;7.510;2023-03-12T16:55:07;11.50;1.00
1592;DHT22;789;51.612;7.510;2023-03-12T16:57:37;11.60;1.00
1592;DHT22;789;51.612;7.510;2023-03-12T17:00:07;11.60;1.00
1592;DHT22;789;51.612;7.510;2023-03-12T17:02:37;11.60;1.00
1592;DHT22;789;51.612;7.510;2023-03-12T17:05:05;11.60;1.00
1592;DHT22;789;51.612;7.510;2023-03-12T17:07:32;11.60;1.00
1592;DHT22;789;51.612;7.510;2023-03-12T17:09:59;11.60;1.00